sensor_id;sensor_type;location;lat;lon;timestamp;pressure;altitude;pressure_sealevel;temperature;humidity
74913;BME280;63878;55.624;37.304;2023-02-11T00:04:43;98912.38;;;-6.96;69.91
74913;BME280;63878;55.624;37.304;2023-02-11T00:14:44;98904.81;;;-7.02;69.52
74913;BME280;63878;55.624;37.304;2023-02-11T00:24:45;98899.38;;;-6.87;69.77
74913;BME280;63878;55.624;37.304;2023-02-11T00:34:45;98906.59;;;-7.06;70.55
74913;BME280;63878;55.624;37.304;2023-02-11T00:44:46;98904.09;;;-7.09;70.23
74913;BME280;63878;55.624;37.304;2023-02-11T00:54:46;98907.81;;;-7.24;69.68
74913;BME280;63878;55.624;37.304;2023-02-11T01:04:47;98923.13;;;-7.19;68.45
74913;BME280;63878;55.624;37.304;2023-02-11T01:14:48;98943.66;;;-7.21;68.87
74913;BME280;63878;55.624;37.304;2023-02-11T01:24:48;98947.16;;;-7.25;69.21
74913;BME280;63878;55.624;37.304;2023-02-11T01:34:49;98965.94;;;-7.24;68.56
74913;BME280;63878;55.624;37.304;2023-02-11T01:44:51;98967.84;;;-7.35;69.32
74913;BME280;63878;55.624;37.304;2023-02-11T01:54:58;98953.53;;;-7.02;68.50
74913;BME280;63878;55.624;37.304;2023-02-11T02:05:09;98964.13;;;-7.17;69.06
74913;BME280;63878;55.624;37.304;2023-02-11T02:25:33;98954.41;;;-7.03;68.66
74913;BME280;63878;55.624;37.304;2023-02-11T02:36:07;98949.06;;;-6.91;67.37
74913;BME280;63878;55.624;37.304;2023-02-11T02:46:20;98948.28;;;-6.96;66.36
74913;BME280;63878;55.624;37.304;2023-02-11T02:56:43;98951.84;;;-7.03;66.42
74913;BME280;63878;55.624;37.304;2023-02-11T03:07:12;98952.66;;;-7.00;66.33
74913;BME280;63878;55.624;37.304;2023-02-11T03:17:18;98954.72;;;-7.18;67.42
74913;BME280;63878;55.624;37.304;2023-02-11T03:27:33;98946.22;;;-7.21;66.89
74913;BME280;63878;55.624;37.304;2023-02-11T03:37:59;98941.91;;;-7.18;67.03
74913;BME280;63878;55.624;37.304;2023-02-11T03:48:14;98912.59;;;-7.50;67.31
74913;BME280;63878;55.624;37.304;2023-02-11T03:58:15;98916.94;;;-7.55;66.70
74913;BME280;63878;55.624;37.304;2023-02-11T04:08:16;98921.94;;;-7.46;65.94
74913;BME280;63878;55.624;37.304;2023-02-11T04:18:17;98922.16;;;-7.58;66.26
74913;BME280;63878;55.624;37.304;2023-02-11T04:28:17;98915.41;;;-7.64;65.99
74913;BME280;63878;55.624;37.304;2023-02-11T04:38:18;98912.16;;;-7.72;66.72
74913;BME280;63878;55.624;37.304;2023-02-11T04:48:18;98898.38;;;-7.68;66.41
74913;BME280;63878;55.624;37.304;2023-02-11T04:58:19;98899.47;;;-7.80;66.65
74913;BME280;63878;55.624;37.304;2023-02-11T05:08:20;98910.56;;;-7.79;67.65
74913;BME280;63878;55.624;37.304;2023-02-11T05:18:21;98907.91;;;-7.75;68.52
74913;BME280;63878;55.624;37.304;2023-02-11T05:28:21;98910.25;;;-7.62;68.18
74913;BME280;63878;55.624;37.304;2023-02-11T05:38:22;98898.63;;;-7.34;67.94
74913;BME280;63878;55.624;37.304;2023-02-11T05:48:23;98902.56;;;-7.62;70.02
74913;BME280;63878;55.624;37.304;2023-02-11T05:58:23;98905.22;;;-7.68;69.82
74913;BME280;63878;55.624;37.304;2023-02-11T06:08:23;98906.03;;;-7.65;70.09
74913;BME280;63878;55.624;37.304;2023-02-11T06:18:24;98901.38;;;-7.44;69.15
74913;BME280;63878;55.624;37.304;2023-02-11T06:28:27;98883.50;;;-7.49;68.83
74913;BME280;63878;55.624;37.304;2023-02-11T06:38:27;98891.22;;;-7.49;69.21
74913;BME280;63878;55.624;37.304;2023-02-11T06:48:28;98877.44;;;-7.43;68.70
74913;BME280;63878;55.624;37.304;2023-02-11T06:58:30;98885.09;;;-7.42;68.92
74913;BME280;63878;55.624;37.304;2023-02-11T07:08:35;98889.09;;;-7.27;69.29
74913;BME280;63878;55.624;37.304;2023-02-11T07:18:36;98893.78;;;-7.06;66.39
74913;BME280;63878;55.624;37.304;2023-02-11T07:28:37;98883.22;;;-6.53;65.42
74913;BME280;63878;55.624;37.304;2023-02-11T07:38:39;98857.75;;;-6.27;63.77
74913;BME280;63878;55.624;37.304;2023-02-11T07:48:41;98863.38;;;-6.48;64.15
74913;BME280;63878;55.624;37.304;2023-02-11T07:58:42;98854.34;;;-5.93;62.15
74913;BME280;63878;55.624;37.304;2023-02-11T08:08:43;98851.09;;;-6.00;61.83
74913;BME280;63878;55.624;37.304;2023-02-11T08:18:44;98829.63;;;-5.99;61.51
74913;BME280;63878;55.624;37.304;2023-02-11T08:28:46;98815.56;;;-6.18;62.65
74913;BME280;63878;55.624;37.304;2023-02-11T08:38:47;98811.47;;;-6.25;62.96
74913;BME280;63878;55.624;37.304;2023-02-11T08:48:48;98784.09;;;-5.33;62.68
74913;BME280;63878;55.624;37.304;2023-02-11T08:58:49;98772.81;;;-5.01;60.70
74913;BME280;63878;55.624;37.304;2023-02-11T09:08:52;98743.25;;;-5.44;61.73
74913;BME280;63878;55.624;37.304;2023-02-11T09:18:58;98712.50;;;-5.76;63.06
74913;BME280;63878;55.624;37.304;2023-02-11T09:29:00;98695.94;;;-5.66;62.88
74913;BME280;63878;55.624;37.304;2023-02-11T09:39:04;98677.03;;;-5.37;62.08
74913;BME280;63878;55.624;37.304;2023-02-11T09:49:05;98669.19;;;-5.33;63.43
74913;BME280;63878;55.624;37.304;2023-02-11T09:59:12;98668.19;;;-5.85;64.27
74913;BME280;63878;55.624;37.304;2023-02-11T10:09:36;98651.44;;;-5.42;63.49
74913;BME280;63878;55.624;37.304;2023-02-11T10:20:02;98634.59;;;-5.50;62.60
74913;BME280;63878;55.624;37.304;2023-02-11T10:30:17;98587.63;;;-5.04;63.33
74913;BME280;63878;55.624;37.304;2023-02-11T10:40:26;98573.75;;;-4.75;60.89
74913;BME280;63878;55.624;37.304;2023-02-11T10:50:31;98549.44;;;-4.66;60.42
74913;BME280;63878;55.624;37.304;2023-02-11T11:00:39;98536.56;;;-4.66;59.73
74913;BME280;63878;55.624;37.304;2023-02-11T11:10:45;98518.34;;;-4.62;62.23
74913;BME280;63878;55.624;37.304;2023-02-11T11:21:04;98498.41;;;-4.57;59.58
74913;BME280;63878;55.624;37.304;2023-02-11T11:31:13;98480.31;;;-5.02;57.97
74913;BME280;63878;55.624;37.304;2023-02-11T11:41:26;98452.78;;;-5.48;59.57
74913;BME280;63878;55.624;37.304;2023-02-11T11:51:27;98424.97;;;-4.67;59.68
74913;BME280;63878;55.624;37.304;2023-02-11T12:43:29;98353.25;;;-4.76;59.78
74913;BME280;63878;55.624;37.304;2023-02-11T12:53:40;98315.16;;;-4.90;60.01
74913;BME280;63878;55.624;37.304;2023-02-11T13:14:03;98254.16;;;-4.46;62.11
74913;BME280;63878;55.624;37.304;2023-02-11T13:24:36;98221.84;;;-4.53;62.21
74913;BME280;63878;55.624;37.304;2023-02-11T13:44:41;98190.81;;;-4.10;65.73
74913;BME280;63878;55.624;37.304;2023-02-11T13:54:46;98164.47;;;-4.56;66.19
74913;BME280;63878;55.624;37.304;2023-02-11T14:05:08;98118.06;;;-4.95;66.19
74913;BME280;63878;55.624;37.304;2023-02-11T14:15:18;98112.47;;;-5.25;68.57
74913;BME280;63878;55.624;37.304;2023-02-11T14:25:24;98068.25;;;-5.15;69.74
74913;BME280;63878;55.624;37.304;2023-02-11T14:45:53;98028.41;;;-5.45;67.75
74913;BME280;63878;55.624;37.304;2023-02-11T14:55:55;98008.66;;;-5.45;67.84
74913;BME280;63878;55.624;37.304;2023-02-11T15:05:59;97976.31;;;-4.91;69.30
74913;BME280;63878;55.624;37.304;2023-02-11T15:16:05;97958.13;;;-4.86;68.62
74913;BME280;63878;55.624;37.304;2023-02-11T15:26:20;97912.91;;;-4.92;69.33
74913;BME280;63878;55.624;37.304;2023-02-11T15:36:23;97929.25;;;-5.32;72.39
74913;BME280;63878;55.624;37.304;2023-02-11T15:46:40;97903.63;;;-5.15;72.53
74913;BME280;63878;55.624;37.304;2023-02-11T15:56:44;97883.09;;;-4.60;71.69
74913;BME280;63878;55.624;37.304;2023-02-11T16:06:47;97872.00;;;-4.79;72.66
74913;BME280;63878;55.624;37.304;2023-02-11T16:17:21;97861.00;;;-4.83;72.19
74913;BME280;63878;55.624;37.304;2023-02-11T16:27:36;97844.59;;;-4.99;73.43
74913;BME280;63878;55.624;37.304;2023-02-11T16:37:38;97826.34;;;-4.76;74.23
74913;BME280;63878;55.624;37.304;2023-02-11T16:47:41;97803.44;;;-4.99;74.15
74913;BME280;63878;55.624;37.304;2023-02-11T16:57:42;97784.41;;;-4.78;76.15
74913;BME280;63878;55.624;37.304;2023-02-11T17:07:43;97769.88;;;-4.79;76.54
74913;BME280;63878;55.624;37.304;2023-02-11T17:17:44;97761.38;;;-5.17;75.79
74913;BME280;63878;55.624;37.304;2023-02-11T17:27:45;97730.19;;;-4.92;77.00
74913;BME280;63878;55.624;37.304;2023-02-11T17:37:45;97723.13;;;-4.88;75.11
74913;BME280;63878;55.624;37.304;2023-02-11T17:47:46;97693.78;;;-4.34;75.18
74913;BME280;63878;55.624;37.304;2023-02-11T17:57:46;97673.53;;;-4.57;75.26
74913;BME280;63878;55.624;37.304;2023-02-11T18:07:47;97658.66;;;-4.35;73.57
74913;BME280;63878;55.624;37.304;2023-02-11T18:17:47;97627.09;;;-4.38;74.78
74913;BME280;63878;55.624;37.304;2023-02-11T18:27:48;97608.84;;;-4.51;73.33
74913;BME280;63878;55.624;37.304;2023-02-11T18:37:50;97601.66;;;-4.29;73.45
74913;BME280;63878;55.624;37.304;2023-02-11T18:47:50;97586.22;;;-4.29;72.71
74913;BME280;63878;55.624;37.304;2023-02-11T18:57:51;97576.50;;;-4.24;73.52
74913;BME280;63878;55.624;37.304;2023-02-11T19:07:52;97557.31;;;-4.18;73.09
74913;BME280;63878;55.624;37.304;2023-02-11T19:17:53;97543.50;;;-4.33;73.35
74913;BME280;63878;55.624;37.304;2023-02-11T19:27:53;97539.16;;;-4.64;72.46
74913;BME280;63878;55.624;37.304;2023-02-11T19:37:54;97518.38;;;-4.94;73.87
74913;BME280;63878;55.624;37.304;2023-02-11T19:47:55;97520.47;;;-4.52;73.50
74913;BME280;63878;55.624;37.304;2023-02-11T19:57:56;97496.88;;;-4.60;73.61
74913;BME280;63878;55.624;37.304;2023-02-11T20:07:57;97494.47;;;-4.31;73.83
74913;BME280;63878;55.624;37.304;2023-02-11T20:17:57;97463.59;;;-4.01;74.40
74913;BME280;63878;55.624;37.304;2023-02-11T20:27:58;97457.41;;;-4.13;73.38
74913;BME280;63878;55.624;37.304;2023-02-11T20:37:58;97434.13;;;-4.27;73.88
74913;BME280;63878;55.624;37.304;2023-02-11T20:47:59;97442.06;;;-4.30;76.85
74913;BME280;63878;55.624;37.304;2023-02-11T20:58:00;97434.56;;;-4.19;74.44
74913;BME280;63878;55.624;37.304;2023-02-11T21:08:00;97435.94;;;-4.13;73.56
74913;BME280;63878;55.624;37.304;2023-02-11T21:18:01;97428.50;;;-4.18;73.21
74913;BME280;63878;55.624;37.304;2023-02-11T21:28:02;97441.28;;;-4.16;73.38
74913;BME280;63878;55.624;37.304;2023-02-11T21:38:03;97420.66;;;-4.16;74.43
74913;BME280;63878;55.624;37.304;2023-02-11T21:48:04;97417.97;;;-3.99;72.52
74913;BME280;63878;55.624;37.304;2023-02-11T21:58:05;97421.75;;;-4.21;73.77
74913;BME280;63878;55.624;37.304;2023-02-11T22:08:05;97429.66;;;-4.24;73.30
74913;BME280;63878;55.624;37.304;2023-02-11T22:18:06;97406.38;;;-4.22;74.75
74913;BME280;63878;55.624;37.304;2023-02-11T22:28:06;97419.72;;;-4.46;75.86
74913;BME280;63878;55.624;37.304;2023-02-11T22:38:07;97424.97;;;-4.79;76.37
74913;BME280;63878;55.624;37.304;2023-02-11T22:48:07;97436.81;;;-4.60;76.59
74913;BME280;63878;55.624;37.304;2023-02-11T22:58:08;97452.44;;;-4.79;77.04
74913;BME280;63878;55.624;37.304;2023-02-11T23:08:10;97440.31;;;-4.77;77.66
74913;BME280;63878;55.624;37.304;2023-02-11T23:18:12;97461.72;;;-4.61;77.30
74913;BME280;63878;55.624;37.304;2023-02-11T23:28:13;97459.91;;;-4.43;76.30
74913;BME280;63878;55.624;37.304;2023-02-11T23:38:13;97502.59;;;-4.70;76.05
74913;BME280;63878;55.624;37.304;2023-02-11T23:48:13;97514.00;;;-4.92;78.97
74913;BME280;63878;55.624;37.304;2023-02-11T23:58:14;97531.59;;;-5.17;79.09
